Time;durP1;ratioP1;P1;durP2;ratioP2;P2;SDS_P1;SDS_P2;PMS_P1;PMS_P2;Temp;Humidity;BMP_temperature;BMP_pressure;BME280_temperature;BME280_humidity;BME280_pressure;Samples;Min_cycle;Max_cycle;Signal;HPM_P1;HPM_P2
2023/03/25 00:01:36;;;;;;;4.70;2.05;;;;;;;19.72;52.87;100743.31;5057265;28;20049;-50
2023/03/25 00:04:04;;;;;;;2.58;1.85;;;;;;;19.72;52.97;100740.63;5057233;28;20049;-57
2023/03/25 00:06:35;;;;;;;4.55;2.05;;;;;;;19.70;52.71;100745.31;5057330;28;20059;-58
2023/03/25 00:09:03;;;;;;;4.50;2.42;;;;;;;19.73;52.91;100744.19;5057145;28;20049;-58
2023/03/25 00:11:30;;;;;;;3.67;2.50;;;;;;;19.71;52.72;100736.25;5057009;28;20069;-58
2023/03/25 00:13:57;;;;;;;4.57;2.17;;;;;;;19.71;53.04;100730.88;5056975;28;20635;-51
2023/03/25 00:16:25;;;;;;;4.72;2.00;;;;;;;19.72;52.73;100732.56;5056942;28;20052;-59
2023/03/25 00:18:52;;;;;;;5.68;2.22;;;;;;;19.71;52.90;100743.47;5056850;28;20045;-58
2023/03/25 00:21:20;;;;;;;3.45;2.25;;;;;;;19.72;53.02;100739.78;5056803;28;20041;-59
2023/03/25 00:23:47;;;;;;;4.30;2.30;;;;;;;19.70;52.76;100726.50;5056743;28;20443;-59
2023/03/25 00:26:15;;;;;;;3.33;1.90;;;;;;;19.70;52.71;100718.44;5056625;28;20045;-59
2023/03/25 00:28:42;;;;;;;5.82;2.08;;;;;;;19.70;52.54;100715.75;5056788;28;20048;-59
2023/03/25 00:31:13;;;;;;;4.90;2.33;;;;;;;19.70;52.72;100706.84;5056630;28;20667;-59
2023/03/25 00:33:41;;;;;;;3.92;2.35;;;;;;;19.71;52.80;100705.88;5056597;28;20041;-59
2023/03/25 00:36:12;;;;;;;5.63;2.47;;;;;;;19.70;52.85;100710.38;5055328;28;20430;-59
2023/03/25 00:38:41;;;;;;;5.53;2.63;;;;;;;19.70;52.63;100721.13;5055197;28;20068;-59
2023/03/25 00:41:27;;;;;;;5.47;2.03;;;;;;;19.70;52.76;100713.06;5056510;28;20371;-59
2023/03/25 00:43:56;;;;;;;4.28;1.90;;;;;;;19.69;52.90;100719.44;5056375;28;20044;-59
2023/03/25 00:46:26;;;;;;;3.60;2.30;;;;;;;19.69;52.66;100716.75;5056518;28;20061;-59
2023/03/25 00:48:54;;;;;;;4.30;2.13;;;;;;;19.69;52.64;100716.75;5056372;28;20045;-59
2023/03/25 00:51:23;;;;;;;5.10;2.40;;;;;;;19.69;52.82;100702.47;5056274;28;20045;-59
2023/03/25 00:53:52;;;;;;;6.13;2.33;;;;;;;19.69;52.49;100703.31;5055959;28;20040;-59
2023/03/25 00:56:22;;;;;;;2.92;2.00;;;;;;;19.69;52.88;100700.63;5056128;28;20521;-58
2023/03/25 00:58:50;;;;;;;3.92;2.08;;;;;;;19.68;52.73;100696.22;5055562;28;20576;-59
2023/03/25 01:01:25;;;;;;;3.42;1.95;;;;;;;19.69;52.69;100691.72;5056151;28;20045;-59
2023/03/25 01:03:57;;;;;;;4.03;1.80;;;;;;;19.68;52.79;100700.75;5055942;28;20045;-59
2023/03/25 01:06:35;;;;;;;3.15;2.10;;;;;;;19.68;52.73;100690.84;5055978;28;20049;-59
2023/03/25 01:09:05;;;;;;;3.53;2.13;;;;;;;19.69;52.60;100686.38;5055759;28;20060;-59
2023/03/25 01:11:34;;;;;;;3.67;2.30;;;;;;;19.67;52.79;100689.16;5055877;28;20049;-58
2023/03/25 01:14:03;;;;;;;3.08;2.13;;;;;;;19.68;52.45;100684.66;5055769;28;20387;-59
2023/03/25 01:16:31;;;;;;;3.53;2.10;;;;;;;19.68;52.74;100684.66;5055939;28;20049;-58
2023/03/25 01:18:58;;;;;;;3.10;2.15;;;;;;;19.67;52.78;100681.13;5054678;28;20060;-58
2023/03/25 01:21:26;;;;;;;2.95;1.83;;;;;;;19.66;52.83;100671.38;5055619;28;20048;-58
2023/03/25 01:23:53;;;;;;;2.63;1.70;;;;;;;19.67;52.87;100666.84;5055533;28;20469;-58
2023/03/25 01:26:21;;;;;;;3.65;2.05;;;;;;;19.67;52.95;100661.47;5055572;28;20407;-51
2023/03/25 01:28:48;;;;;;;2.65;1.83;;;;;;;19.66;52.93;100652.56;5055649;28;20044;-48
2023/03/25 01:31:16;;;;;;;4.53;2.22;;;;;;;19.66;52.86;100659.78;5055536;28;20045;-48
2023/03/25 01:33:43;;;;;;;3.20;1.73;;;;;;;19.66;52.88;100647.19;5055328;28;20041;-48
2023/03/25 01:36:13;;;;;;;5.00;2.13;;;;;;;19.66;52.83;100646.34;5055463;28;20052;-59
2023/03/25 01:38:41;;;;;;;2.88;1.88;;;;;;;19.66;52.90;100654.41;5055384;28;20040;-58
2023/03/25 01:41:09;;;;;;;3.95;2.03;;;;;;;19.66;52.83;100643.66;5055239;28;20056;-58
2023/03/25 01:43:37;;;;;;;4.35;2.20;;;;;;;19.66;52.71;100633.75;5055283;28;20045;-59
2023/03/25 01:46:04;;;;;;;4.28;2.03;;;;;;;19.66;52.55;100632.91;5053800;28;20049;-49
2023/03/25 01:48:39;;;;;;;3.33;1.90;;;;;;;19.66;52.80;100627.56;5055069;28;20049;-49
2023/03/25 01:51:17;;;;;;;3.85;2.28;;;;;;;19.65;52.38;100626.69;5055014;28;20396;-50
2023/03/25 01:53:45;;;;;;;3.50;1.83;;;;;;;19.65;52.19;100628.53;5054778;28;20037;-52
2023/03/25 01:56:17;;;;;;;4.22;2.25;;;;;;;19.66;52.39;100625.72;5055171;28;20048;-59
2023/03/25 01:58:46;;;;;;;5.43;2.45;;;;;;;19.65;52.46;100617.81;5053911;28;20071;-58
2023/03/25 02:01:17;;;;;;;4.30;2.20;;;;;;;19.65;52.54;100626.69;5053906;28;20053;-58
2023/03/25 02:03:44;;;;;;;4.63;2.60;;;;;;;19.64;52.77;100616.94;5054905;28;20468;-58
2023/03/25 02:06:27;;;;;;;4.10;2.10;;;;;;;19.64;52.54;100619.63;5053407;28;20071;-50
2023/03/25 02:08:57;;;;;;;4.40;2.60;;;;;;;19.64;52.09;100616.06;5054815;28;20049;-48
2023/03/25 02:11:28;;;;;;;3.83;2.25;;;;;;;19.64;52.07;100613.41;5054979;28;20391;-50
2023/03/25 02:14:01;;;;;;;2.90;1.90;;;;;;;19.64;52.17;100608.88;5054819;28;20048;-48
2023/03/25 02:16:29;;;;;;;7.47;1.90;;;;;;;19.65;51.82;100610.59;5055147;28;20221;-58
2023/03/25 02:19:03;;;;;;;2.95;2.10;;;;;;;19.63;52.11;100607.19;5054774;28;20056;-59
2023/03/25 02:21:52;;;;;;;3.78;2.15;;;;;;;19.64;52.03;100608.88;5054526;28;20395;-58
2023/03/25 02:24:52;;;;;;;2.80;2.13;;;;;;;19.64;52.20;100608.03;5054746;28;20041;-49
2023/03/25 02:27:32;;;;;;;3.83;1.80;;;;;;;19.63;51.90;100612.56;5054395;28;20060;-46
2023/03/25 02:30:14;;;;;;;3.28;2.10;;;;;;;19.63;51.96;100591.06;5054440;28;20049;-51
2023/03/25 02:32:56;;;;;;;3.15;2.00;;;;;;;19.64;52.06;100598.13;5053276;28;20048;-48
2023/03/25 02:35:52;;;;;;;3.05;2.30;;;;;;;19.63;52.03;100585.69;5053218;28;20495;-50
2023/03/25 02:38:35;;;;;;;3.28;2.08;;;;;;;19.62;51.97;100584.00;5052995;28;20060;-50
2023/03/25 02:41:19;;;;;;;7.63;2.05;;;;;;;19.62;52.13;100589.38;5053134;28;20063;-51
2023/03/25 02:43:56;;;;;;;3.35;1.67;;;;;;;19.63;52.21;100579.47;5054157;28;20486;-49
2023/03/25 02:46:26;;;;;;;3.35;2.20;;;;;;;19.62;52.10;100570.56;5052531;28;20053;-49
2023/03/25 02:49:16;;;;;;;4.38;2.38;;;;;;;19.62;52.24;100580.47;5054196;28;20052;-52
2023/03/25 02:51:52;;;;;;;3.75;2.15;;;;;;;19.62;51.75;100577.78;5053947;28;20045;-50
2023/03/25 02:54:23;;;;;;;4.25;2.60;;;;;;;19.62;51.94;100583.16;5054028;28;20399;-57
2023/03/25 02:56:56;;;;;;;3.63;1.92;;;;;;;19.62;52.20;100577.78;5053798;28;20053;-58
2023/03/25 02:59:28;;;;;;;4.43;2.08;;;;;;;19.62;51.98;100583.16;5053925;28;20052;-58
2023/03/25 03:02:02;;;;;;;4.68;2.17;;;;;;;19.62;51.77;100584.00;5053730;28;20041;-59
2023/03/25 03:04:29;;;;;;;3.20;2.05;;;;;;;19.61;51.63;100582.31;5052495;28;20048;-58
2023/03/25 03:06:57;;;;;;;4.93;2.10;;;;;;;19.62;51.73;100569.75;5053515;28;20044;-58
2023/03/25 03:09:31;;;;;;;4.78;2.45;;;;;;;19.61;51.87;100568.88;5053642;28;20427;-58
2023/03/25 03:12:10;;;;;;;3.92;2.70;;;;;;;19.61;51.80;100565.34;5053813;28;20052;-58
2023/03/25 03:14:47;;;;;;;4.00;2.08;;;;;;;19.61;51.87;100574.25;5053698;28;20382;-58
2023/03/25 03:17:25;;;;;;;3.95;2.25;;;;;;;19.61;51.63;100573.38;5053692;28;20045;-59
2023/03/25 03:20:18;;;;;;;3.80;2.30;;;;;;;19.61;51.92;100571.56;5052658;28;20060;-59
2023/03/25 03:23:04;;;;;;;3.67;2.22;;;;;;;19.61;51.95;100566.22;5052433;28;20079;-58
2023/03/25 03:25:51;;;;;;;3.38;1.98;;;;;;;19.60;51.74;100572.50;5053599;28;20052;-50
2023/03/25 03:28:38;;;;;;;4.15;2.40;;;;;;;19.61;51.57;100587.69;5052964;28;20057;-48
2023/03/25 03:31:24;;;;;;;3.78;2.30;;;;;;;19.61;51.65;100593.06;5053461;28;20056;-52
2023/03/25 03:34:56;;;;;;;4.38;2.40;;;;;;;19.60;51.92;100598.53;5053262;28;20045;-57
2023/03/25 03:37:47;;;;;;;4.10;2.63;;;;;;;19.61;51.49;100608.28;5053409;28;20483;-59
2023/03/25 03:40:19;;;;;;;2.58;1.80;;;;;;;19.59;51.62;100602.19;5053484;28;20498;-59
2023/03/25 03:42:54;;;;;;;5.35;2.10;;;;;;;19.60;51.40;100611.94;5053235;28;20067;-58
2023/03/25 03:45:28;;;;;;;4.20;2.35;;;;;;;19.59;51.44;100616.47;5053344;28;20530;-49
2023/03/25 03:48:00;;;;;;;3.85;1.83;;;;;;;19.59;51.36;100627.22;5053168;28;20052;-48
2023/03/25 03:50:36;;;;;;;3.70;2.47;;;;;;;19.60;51.56;100631.59;5053124;28;20364;-52
2023/03/25 03:53:27;;;;;;;3.60;2.10;;;;;;;19.59;51.48;100634.41;5053015;28;20657;-51
2023/03/25 03:56:02;;;;;;;5.20;2.42;;;;;;;19.58;51.45;100628.22;5053147;28;20051;-58
2023/03/25 03:58:34;;;;;;;2.72;2.17;;;;;;;19.59;51.69;100629.91;5053066;28;20045;-58
2023/03/25 04:01:29;;;;;;;4.00;1.77;;;;;;;19.59;51.26;100627.22;5053214;28;20045;-58
2023/03/25 04:04:03;;;;;;;3.35;2.13;;;;;;;19.58;51.66;100636.25;5053135;28;20064;-53
2023/03/25 04:06:34;;;;;;;3.47;2.17;;;;;;;19.59;52.13;100634.41;5051975;28;20051;-49
2023/03/25 04:09:17;;;;;;;4.82;2.47;;;;;;;19.59;51.87;100634.41;5053099;28;20514;-49
2023/03/25 04:11:52;;;;;;;3.33;1.90;;;;;;;19.57;51.92;100637.25;5053041;28;20052;-49
2023/03/25 04:14:20;;;;;;;3.38;1.95;;;;;;;19.58;51.69;100630.88;5053126;28;20041;-58
2023/03/25 04:16:47;;;;;;;4.72;2.30;;;;;;;19.57;52.12;100631.88;5052957;28;20065;-58
2023/03/25 04:19:17;;;;;;;3.60;1.90;;;;;;;19.58;52.37;100630.88;5052959;28;20052;-58
2023/03/25 04:21:49;;;;;;;3.97;2.45;;;;;;;19.57;52.39;100629.19;5052959;28;20049;-58
2023/03/25 04:24:18;;;;;;;3.22;2.13;;;;;;;19.58;52.41;100638.09;5051887;28;20380;-58
2023/03/25 04:26:46;;;;;;;4.13;1.90;;;;;;;19.57;52.38;100637.25;5052547;28;20045;-58
2023/03/25 04:29:13;;;;;;;2.15;1.67;;;;;;;19.57;52.51;100645.31;5052856;28;20048;-58
2023/03/25 04:31:44;;;;;;;6.28;2.08;;;;;;;19.58;52.58;100641.63;5052692;28;20049;-59
2023/03/25 04:34:13;;;;;;;3.05;1.92;;;;;;;19.58;52.63;100652.38;5056543;28;20052;-58
2023/03/25 04:36:41;;;;;;;4.25;1.98;;;;;;;19.58;52.51;100644.31;5056586;28;20056;-58
2023/03/25 04:39:16;;;;;;;3.40;1.90;;;;;;;19.58;52.50;100652.38;5056480;28;20053;-58
2023/03/25 04:41:43;;;;;;;2.90;2.05;;;;;;;19.58;52.41;100651.53;5056239;28;20059;-58
2023/03/25 04:44:11;;;;;;;4.90;2.40;;;;;;;19.57;52.56;100658.75;5056496;28;20040;-58
2023/03/25 04:46:40;;;;;;;3.13;1.92;;;;;;;19.58;52.34;100665.81;5055853;28;20395;-58
2023/03/25 04:49:17;;;;;;;4.97;2.10;;;;;;;19.57;52.54;100652.50;5056305;28;20398;-59
2023/03/25 04:51:48;;;;;;;4.05;1.73;;;;;;;19.57;52.45;100661.41;5056280;28;20065;-59
2023/03/25 04:54:16;;;;;;;3.78;2.33;;;;;;;19.56;52.42;100662.38;5056075;28;20045;-58
2023/03/25 04:56:46;;;;;;;3.78;1.75;;;;;;;19.56;52.35;100659.69;5056002;28;20482;-59
2023/03/25 04:59:14;;;;;;;4.13;2.10;;;;;;;19.56;52.46;100665.06;5055977;28;20045;-58
2023/03/25 05:01:44;;;;;;;4.25;2.17;;;;;;;19.56;52.28;100657.00;5055973;28;20052;-58
2023/03/25 05:04:16;;;;;;;4.22;2.30;;;;;;;19.57;52.48;100664.09;5056053;28;20051;-58
2023/03/25 05:06:46;;;;;;;5.30;2.20;;;;;;;19.56;52.45;100656.16;5055937;28;20483;-58
2023/03/25 05:09:18;;;;;;;3.67;2.17;;;;;;;19.56;52.39;100666.91;5055872;28;20041;-58
2023/03/25 05:11:45;;;;;;;4.45;2.67;;;;;;;19.56;52.26;100665.06;5055825;28;20056;-59
2023/03/25 05:14:16;;;;;;;7.05;2.22;;;;;;;19.56;52.39;100672.28;5055629;28;20041;-46
2023/03/25 05:16:44;;;;;;;3.83;1.80;;;;;;;19.56;52.42;100674.97;5055607;28;20060;-48
2023/03/25 05:19:13;;;;;;;2.95;1.92;;;;;;;19.56;52.26;100683.03;5055677;28;20072;-49
2023/03/25 05:21:41;;;;;;;2.88;1.60;;;;;;;19.56;52.22;100691.94;5055648;28;20533;-48
2023/03/25 05:24:12;;;;;;;4.63;2.00;;;;;;;19.55;51.87;100695.59;5055566;28;20052;-57
2023/03/25 05:26:41;;;;;;;2.55;1.88;;;;;;;19.55;51.96;100692.91;5055414;28;20059;-59
2023/03/25 05:29:15;;;;;;;3.97;2.00;;;;;;;19.55;51.91;100695.59;5055487;28;20059;-58
2023/03/25 05:31:44;;;;;;;5.55;2.33;;;;;;;19.54;51.92;100693.91;5055539;28;20052;-58
2023/03/25 05:34:13;;;;;;;4.90;2.35;;;;;;;19.54;51.83;100688.53;5055237;28;20045;-49
2023/03/25 05:36:40;;;;;;;2.85;1.70;;;;;;;19.53;52.18;100684.16;5055337;28;20056;-49
2023/03/25 05:39:09;;;;;;;7.15;2.28;;;;;;;19.54;52.09;100683.16;5055287;28;20049;-52
2023/03/25 05:41:40;;;;;;;3.65;2.10;;;;;;;19.54;51.92;100688.53;5055062;28;20071;-51
2023/03/25 05:44:14;;;;;;;4.22;2.08;;;;;;;19.54;51.98;100685.00;5054996;28;20052;-51
2023/03/25 05:46:41;;;;;;;3.08;1.92;;;;;;;19.54;52.00;100696.59;5055244;28;20056;-50
2023/03/25 05:49:09;;;;;;;3.65;2.33;;;;;;;19.54;51.91;100691.22;5055160;28;20056;-49
2023/03/25 05:51:36;;;;;;;3.85;1.98;;;;;;;19.53;51.97;100697.59;5055110;28;20045;-50
2023/03/25 05:54:09;;;;;;;3.17;2.22;;;;;;;19.54;51.76;100701.13;5054688;28;20506;-57
2023/03/25 05:56:38;;;;;;;4.35;1.88;;;;;;;19.53;51.91;100705.66;5054992;28;20052;-59
2023/03/25 05:59:07;;;;;;;3.78;2.20;;;;;;;19.53;51.90;100700.28;5054796;28;20045;-59
2023/03/25 06:01:40;;;;;;;3.13;1.83;;;;;;;19.53;51.90;100702.97;5054930;28;20045;-59
2023/03/25 06:04:08;;;;;;;5.35;2.17;;;;;;;19.53;51.49;100702.97;5054907;28;20052;-50
2023/03/25 06:06:36;;;;;;;3.72;2.25;;;;;;;19.52;51.66;100694.03;5054716;28;20049;-47
2023/03/25 06:09:05;;;;;;;5.10;1.85;;;;;;;19.52;52.00;100680.59;5054587;28;20051;-49
2023/03/25 06:11:39;;;;;;;3.47;1.65;;;;;;;19.53;51.98;100681.47;5054670;28;20048;-50
2023/03/25 06:14:07;;;;;;;3.25;2.13;;;;;;;19.53;51.73;100678.78;5054690;28;20067;-58
2023/03/25 06:16:34;;;;;;;4.10;2.25;;;;;;;19.54;51.83;100676.97;5054461;28;20049;-58
2023/03/25 06:19:02;;;;;;;4.93;2.45;;;;;;;19.53;51.73;100681.47;5054599;28;20048;-59
2023/03/25 06:21:33;;;;;;;4.43;2.42;;;;;;;19.54;51.67;100672.44;5053484;28;20048;-59
2023/03/25 06:24:01;;;;;;;4.60;1.58;;;;;;;19.54;51.63;100680.50;5054265;28;20053;-58
2023/03/25 06:26:31;;;;;;;3.88;1.85;;;;;;;19.54;51.62;100683.16;5054148;28;20060;-59
2023/03/25 06:29:00;;;;;;;3.10;1.80;;;;;;;19.54;51.41;100682.31;5053023;28;20056;-58
2023/03/25 06:31:27;;;;;;;3.80;2.20;;;;;;;19.55;51.31;100689.38;5054353;28;20044;-58
2023/03/25 06:33:55;;;;;;;3.42;1.98;;;;;;;19.55;51.42;100690.22;5054173;28;20049;-58
2023/03/25 06:36:24;;;;;;;4.88;2.75;;;;;;;19.55;51.29;100682.19;5054156;28;20064;-59
2023/03/25 06:38:53;;;;;;;5.60;2.25;;;;;;;19.55;51.35;100690.22;5054063;28;20071;-59
2023/03/25 06:41:24;;;;;;;3.35;2.20;;;;;;;19.55;51.30;100690.22;5036391;28;20048;-59
2023/03/25 06:44:08;;;;;;;3.92;1.88;;;;;;;19.56;51.17;100693.75;5052789;28;20491;-58
2023/03/25 06:46:38;;;;;;;3.55;1.80;;;;;;;19.56;51.19;100697.28;5054071;28;20048;-59
2023/03/25 06:49:24;;;;;;;4.15;2.10;;;;;;;19.56;51.18;100691.94;5060774;28;20056;-58
2023/03/25 06:51:54;;;;;;;4.75;1.75;;;;;;;19.57;51.17;100693.66;5052383;28;20057;-59
2023/03/25 06:54:22;;;;;;;5.78;2.35;;;;;;;19.57;51.19;100698.13;5052349;28;20049;-58
2023/03/25 06:56:49;;;;;;;4.07;2.45;;;;;;;19.58;51.28;100699.88;5053237;28;20059;-48
2023/03/25 06:59:17;;;;;;;7.40;2.20;;;;;;;19.57;51.33;100699.00;5053792;28;20049;-51
2023/03/25 07:01:44;;;;;;;3.65;1.98;;;;;;;19.57;51.29;100699.00;5053722;28;20041;-58
2023/03/25 07:04:11;;;;;;;3.22;2.20;;;;;;;19.58;51.20;100706.06;5053802;28;20067;-47
2023/03/25 07:06:39;;;;;;;2.35;1.63;;;;;;;19.57;51.24;100703.50;5053636;28;20048;-49
2023/03/25 07:09:07;;;;;;;4.80;2.53;;;;;;;19.59;51.29;100705.09;5053649;28;20049;-51
2023/03/25 07:11:34;;;;;;;3.90;1.95;;;;;;;19.59;51.21;100704.25;5053480;28;20045;-50
2023/03/25 07:14:02;;;;;;;2.80;1.83;;;;;;;19.59;51.38;100707.78;5053616;28;20045;-53
2023/03/25 07:16:32;;;;;;;3.28;1.80;;;;;;;19.60;51.36;100697.88;5053477;28;20041;-53
2023/03/25 07:18:59;;;;;;;3.92;1.98;;;;;;;19.59;51.14;100697.03;5053542;28;20045;-52
2023/03/25 07:21:27;;;;;;;3.40;2.03;;;;;;;19.60;51.43;100695.19;5053279;28;20056;-52
2023/03/25 07:23:55;;;;;;;3.10;2.03;;;;;;;19.59;51.42;100688.97;5053413;28;20048;-52
2023/03/25 07:26:27;;;;;;;4.13;2.20;;;;;;;19.60;51.48;100684.44;5053184;28;20049;-47
2023/03/25 07:28:56;;;;;;;5.10;2.20;;;;;;;19.60;51.35;100693.34;5053667;28;20051;-49
2023/03/25 07:31:23;;;;;;;4.20;2.25;;;;;;;19.60;51.62;100698.72;5053375;28;20060;-52
2023/03/25 07:33:51;;;;;;;3.72;2.00;;;;;;;19.61;51.33;100702.28;5053362;28;20518;-52
2023/03/25 07:36:20;;;;;;;3.25;1.75;;;;;;;19.60;51.73;100698.72;5053401;28;20103;-58
2023/03/25 07:38:48;;;;;;;4.05;2.67;;;;;;;19.61;51.60;100705.84;5053134;28;20059;-59
2023/03/25 07:41:15;;;;;;;2.65;1.80;;;;;;;19.61;51.51;100711.22;5053208;28;20051;-52
2023/03/25 07:43:57;;;;;;;4.50;1.85;;;;;;;19.62;51.49;100706.69;5052222;28;20049;-52
2023/03/25 07:46:27;;;;;;;3.72;1.90;;;;;;;19.62;51.48;100707.53;5051964;28;20045;-48
2023/03/25 07:48:54;;;;;;;4.68;2.00;;;;;;;19.63;51.64;100703.84;5053140;28;20052;-49
2023/03/25 07:51:22;;;;;;;4.35;2.00;;;;;;;19.64;51.89;100705.53;5053085;28;20472;-59
2023/03/25 07:53:49;;;;;;;4.82;2.42;;;;;;;19.66;51.50;100702.75;5052956;28;20048;-60
2023/03/25 07:56:16;;;;;;;4.70;2.85;;;;;;;19.68;51.52;100706.13;5053016;28;20045;-54
2023/03/25 07:58:44;;;;;;;5.30;2.95;;;;;;;19.71;51.44;100712.06;5053115;28;20060;-53
2023/03/25 08:01:11;;;;;;;8.07;3.10;;;;;;;19.72;51.23;100705.72;5053018;28;20049;-55
2023/03/25 08:03:39;;;;;;;4.15;2.50;;;;;;;19.74;51.16;100702.91;5053076;28;20399;-53
2023/03/25 08:06:07;;;;;;;3.40;2.03;;;;;;;19.76;51.81;100709.81;5053632;28;20041;-61
2023/03/25 08:08:34;;;;;;;4.63;2.63;;;;;;;19.78;51.60;100714.22;5056957;28;20474;-60
2023/03/25 08:11:02;;;;;;;4.57;2.55;;;;;;;19.80;51.26;100709.56;5056852;28;20041;-61
2023/03/25 08:13:29;;;;;;;5.43;2.20;;;;;;;19.82;51.75;100721.03;5056803;28;20049;-60
2023/03/25 08:15:57;;;;;;;5.78;1.88;;;;;;;19.81;51.65;100722.88;5055598;28;20084;-50
2023/03/25 08:18:24;;;;;;;5.13;2.42;;;;;;;19.83;51.78;100715.50;5055587;28;20052;-50
2023/03/25 08:20:52;;;;;;;4.22;2.17;;;;;;;19.83;51.53;100723.56;5056644;28;20056;-51
2023/03/25 08:23:21;;;;;;;4.75;2.47;;;;;;;19.84;51.50;100725.25;5056570;28;20044;-53
2023/03/25 08:25:49;;;;;;;4.28;2.17;;;;;;;19.86;51.52;100725.97;5056449;28;20044;-51
2023/03/25 08:28:22;;;;;;;5.40;3.03;;;;;;;19.86;51.79;100725.97;5056407;28;20060;-50
2023/03/25 08:30:53;;;;;;;6.00;2.17;;;;;;;19.86;51.97;100725.13;5056217;28;20052;-50
2023/03/25 08:33:38;;;;;;;6.00;3.33;;;;;;;19.85;51.71;100726.97;5056332;28;20387;-51
2023/03/25 08:36:09;;;;;;;7.00;4.22;;;;;;;19.87;51.01;100726.81;5056404;28;20410;-60
2023/03/25 08:38:36;;;;;;;5.55;3.00;;;;;;;19.86;51.51;100720.59;5056332;28;20049;-60
2023/03/25 08:41:04;;;;;;;4.18;3.08;;;;;;;19.87;51.39;100722.31;5056362;28;20049;-60
2023/03/25 08:43:31;;;;;;;6.47;3.78;;;;;;;19.90;51.04;100721.19;5056415;28;20052;-60
2023/03/25 08:45:58;;;;;;;3.83;2.55;;;;;;;19.90;51.18;100722.03;5056237;28;20045;-51
2023/03/25 08:48:26;;;;;;;7.07;2.10;;;;;;;19.90;51.54;100722.03;5056263;28;20040;-50
2023/03/25 08:50:53;;;;;;;4.05;2.20;;;;;;;19.90;51.31;100721.19;5056225;28;20387;-53
2023/03/25 08:53:21;;;;;;;6.10;3.20;;;;;;;19.91;51.59;100728.25;5056126;28;20056;-51
2023/03/25 08:55:56;;;;;;;5.60;2.70;;;;;;;19.92;51.56;100720.03;5056113;28;20045;-58
2023/03/25 08:58:25;;;;;;;3.60;2.22;;;;;;;19.94;51.61;100717.22;5055917;28;20373;-59
2023/03/25 09:00:54;;;;;;;6.00;2.90;;;;;;;19.94;51.11;100711.84;5055991;28;20041;-58
2023/03/25 09:03:23;;;;;;;4.28;2.25;;;;;;;19.94;51.25;100718.09;5055723;28;20049;-58
2023/03/25 09:05:51;;;;;;;4.88;2.15;;;;;;;19.96;51.38;100723.31;5055925;28;20063;-58
2023/03/25 09:08:19;;;;;;;5.03;2.55;;;;;;;19.97;51.37;100722.31;5055728;28;20479;-58
2023/03/25 09:10:47;;;;;;;3.70;2.30;;;;;;;19.97;51.63;100719.63;5061711;28;20044;-58
2023/03/25 09:13:15;;;;;;;3.88;1.95;;;;;;;19.98;51.63;100721.34;5075333;28;20055;-58
2023/03/25 09:15:44;;;;;;;4.30;2.20;;;;;;;19.99;51.57;100717.66;5075683;28;20044;-58
2023/03/25 09:18:12;;;;;;;6.50;2.28;;;;;;;19.99;51.62;100714.97;5074721;28;20044;-58
2023/03/25 09:20:40;;;;;;;4.28;2.05;;;;;;;19.99;51.41;100715.81;5075491;28;20056;-58
2023/03/25 09:23:08;;;;;;;3.08;1.95;;;;;;;20.00;51.45;100717.50;5075625;28;20490;-58
2023/03/25 09:25:36;;;;;;;5.32;2.28;;;;;;;20.02;51.36;100721.91;5075670;28;20049;-52
2023/03/25 09:28:04;;;;;;;4.88;1.73;;;;;;;20.00;51.44;100704.06;5075296;28;20049;-48
2023/03/25 09:30:32;;;;;;;5.90;2.00;;;;;;;20.01;51.30;100704.91;5075146;28;20063;-47
2023/03/25 09:33:00;;;;;;;4.20;2.17;;;;;;;20.02;51.52;100705.78;5075140;28;20055;-48
2023/03/25 09:35:28;;;;;;;3.25;2.00;;;;;;;20.02;51.67;100703.94;5075289;28;20501;-47
2023/03/25 09:37:55;;;;;;;5.43;2.08;;;;;;;20.03;51.75;100708.34;5077231;28;20081;-47
2023/03/25 09:40:22;;;;;;;5.82;2.08;;;;;;;20.04;51.75;100704.66;5086787;28;20044;-50
2023/03/25 09:43:07;;;;;;;4.80;1.90;;;;;;;20.04;51.71;100693.91;5079647;28;20055;-48
2023/03/25 09:45:40;;;;;;;3.53;2.00;;;;;;;20.04;51.38;100696.59;5055074;28;20391;-57
2023/03/25 09:48:35;;;;;;;6.18;2.40;;;;;;;20.05;51.58;100694.75;5055140;28;20506;-58
2023/03/25 09:51:06;;;;;;;3.08;1.63;;;;;;;20.06;51.46;100696.47;5055068;28;20045;-58
2023/03/25 09:53:42;;;;;;;6.38;1.98;;;;;;;20.05;51.53;100694.75;5055018;28;20499;-58
2023/03/25 09:56:15;;;;;;;5.82;1.60;;;;;;;20.06;51.43;100704.53;5063434;28;20063;-58
2023/03/25 09:58:46;;;;;;;8.57;2.10;;;;;;;20.06;51.04;100699.16;5063437;28;20045;-58
2023/03/25 10:01:35;;;;;;;4.63;1.95;;;;;;;20.06;50.99;100689.25;5055193;28;20053;-58
2023/03/25 10:04:23;;;;;;;4.80;1.85;;;;;;;20.06;50.90;100696.47;5054863;28;20048;-53
2023/03/25 10:07:15;;;;;;;4.82;2.17;;;;;;;20.09;50.47;100698.84;5054829;28;20041;-51
2023/03/25 10:09:54;;;;;;;3.30;1.65;;;;;;;20.09;49.99;100706.91;5054548;28;20057;-52
2023/03/25 10:12:48;;;;;;;5.13;1.92;;;;;;;20.09;50.25;100696.16;5054681;28;20056;-51
2023/03/25 10:15:39;;;;;;;5.63;1.70;;;;;;;20.09;50.01;100697.00;5054563;28;20379;-48
2023/03/25 10:18:19;;;;;;;6.55;1.45;;;;;;;20.10;50.12;100689.81;5054489;28;20399;-52
2023/03/25 10:20:56;;;;;;;3.78;1.63;;;;;;;20.09;50.45;100688.94;5054529;28;20041;-50
2023/03/25 10:24:00;;;;;;;4.78;1.75;;;;;;;20.09;50.63;100688.94;5054526;28;20063;-51
2023/03/25 10:26:51;;;;;;;2.83;1.45;;;;;;;20.10;50.87;100684.44;5054228;28;20057;-58
2023/03/25 10:29:30;;;;;;;5.97;2.15;;;;;;;20.10;50.73;100677.22;5053985;28;20053;-58
2023/03/25 10:32:05;;;;;;;7.57;1.92;;;;;;;20.10;50.97;100677.22;5053954;28;20406;-59
2023/03/25 10:34:38;;;;;;;5.80;1.40;;;;;;;20.11;50.93;100676.22;5054277;28;20049;-60
2023/03/25 10:37:11;;;;;;;5.78;1.55;;;;;;;20.12;51.06;100679.75;5054031;28;20041;-60
2023/03/25 10:39:44;;;;;;;4.68;1.27;;;;;;;20.11;50.88;100673.53;5054044;28;20056;-59
2023/03/25 10:42:23;;;;;;;8.40;1.73;;;;;;;20.12;50.86;100672.53;5054259;28;20482;-59
2023/03/25 10:44:51;;;;;;;4.15;1.52;;;;;;;20.12;50.98;100661.78;5054120;28;20052;-59
2023/03/25 10:47:23;;;;;;;4.55;1.77;;;;;;;20.12;50.58;100672.53;5053794;28;20037;-53
2023/03/25 10:49:53;;;;;;;4.95;1.60;;;;;;;20.11;49.70;100661.94;5054094;28;20071;-54
2023/03/25 10:52:20;;;;;;;5.00;1.63;;;;;;;20.10;49.50;100668.31;5053997;28;20052;-51
2023/03/25 10:54:52;;;;;;;5.32;1.80;;;;;;;20.09;49.32;100672.81;5053503;28;20049;-59
2023/03/25 10:57:24;;;;;;;6.78;1.50;;;;;;;20.08;49.28;100681.03;5053367;28;20044;-59
2023/03/25 11:00:20;;;;;;;3.90;1.40;;;;;;;20.07;49.31;100669.44;5053382;28;20506;-59
2023/03/25 11:02:48;;;;;;;4.07;1.77;;;;;;;20.06;49.16;100666.91;5053278;28;20048;-59
2023/03/25 11:05:19;;;;;;;7.97;2.13;;;;;;;20.06;49.36;100666.91;5053352;28;20048;-49
2023/03/25 11:07:57;;;;;;;4.18;1.52;;;;;;;20.05;49.30;100662.50;5053234;28;20052;-52
2023/03/25 11:10:28;;;;;;;3.90;1.42;;;;;;;20.05;49.43;100666.03;5053279;28;20076;-52
2023/03/25 11:12:57;;;;;;;6.22;1.70;;;;;;;20.05;49.91;100660.66;5053219;28;20060;-51
2023/03/25 11:15:32;;;;;;;4.30;1.45;;;;;;;20.06;49.51;100661.53;5053117;28;20049;-54
2023/03/25 11:18:25;;;;;;;5.03;2.00;;;;;;;20.04;49.50;100669.72;5052929;28;20033;-50
2023/03/25 11:20:56;;;;;;;4.22;1.27;;;;;;;20.03;49.60;100659.97;5053067;28;20041;-50
2023/03/25 11:23:30;;;;;;;4.78;1.60;;;;;;;20.04;49.45;100658.97;5052937;28;20056;-48
2023/03/25 11:26:11;;;;;;;6.38;1.88;;;;;;;20.02;49.22;100652.06;5053129;28;20044;-59
2023/03/25 11:28:48;;;;;;;3.30;1.48;;;;;;;20.02;49.33;100644.84;5052966;28;20040;-58
2023/03/25 11:31:21;;;;;;;3.25;1.50;;;;;;;20.02;49.36;100638.63;5052860;28;20080;-58
2023/03/25 11:34:13;;;;;;;4.38;1.52;;;;;;;20.02;49.23;100631.41;5052928;28;20505;-58
2023/03/25 11:36:53;;;;;;;3.50;1.20;;;;;;;20.02;49.12;100634.09;5052754;28;20041;-51
2023/03/25 11:39:21;;;;;;;2.53;1.23;;;;;;;20.02;49.32;100619.81;5052904;28;20067;-51
2023/03/25 11:41:49;;;;;;;3.33;1.55;;;;;;;20.01;49.21;100616.25;5054520;28;20483;-53
2023/03/25 11:44:31;;;;;;;3.00;1.33;;;;;;;20.01;49.11;100605.50;5057015;28;20395;-58
2023/03/25 11:47:04;;;;;;;3.65;1.00;;;;;;;20.01;49.01;100602.81;5056906;28;20399;-58
2023/03/25 11:49:36;;;;;;;3.65;1.45;;;;;;;20.01;49.04;100600.13;5056958;28;20049;-59